sensor_id;sensor_type;location;lat;lon;timestamp;pressure;altitude;pressure_sealevel;temperature;humidity
78117;BME280;67887;59.082;37.928;2023-04-01T00:01:26;98728.03;;;6.62;46.49
78117;BME280;67887;59.082;37.928;2023-04-01T00:03:52;98716.19;;;6.57;46.53
78117;BME280;67887;59.082;37.928;2023-04-01T00:06:20;98718.09;;;6.53;46.76
78117;BME280;67887;59.082;37.928;2023-04-01T00:08:46;98717.47;;;6.48;46.98
78117;BME280;67887;59.082;37.928;2023-04-01T00:11:13;98714.19;;;6.44;47.23
78117;BME280;67887;59.082;37.928;2023-04-01T00:13:41;98719.50;;;6.41;46.80
78117;BME280;67887;59.082;37.928;2023-04-01T00:16:08;98710.88;;;6.41;47.16
78117;BME280;67887;59.082;37.928;2023-04-01T00:18:34;98718.75;;;6.39;47.01
78117;BME280;67887;59.082;37.928;2023-04-01T00:21:00;98717.91;;;6.39;47.66
78117;BME280;67887;59.082;37.928;2023-04-01T00:23:27;98717.84;;;6.40;47.02
78117;BME280;67887;59.082;37.928;2023-04-01T00:25:54;98712.66;;;6.40;46.96
78117;BME280;67887;59.082;37.928;2023-04-01T00:28:20;98712.03;;;6.35;46.93
78117;BME280;67887;59.082;37.928;2023-04-01T00:30:47;98711.19;;;6.35;47.23
78117;BME280;67887;59.082;37.928;2023-04-01T00:33:13;98715.53;;;6.34;47.48
78117;BME280;67887;59.082;37.928;2023-04-01T00:35:41;98707.13;;;6.29;47.09
78117;BME280;67887;59.082;37.928;2023-04-01T00:38:08;98712.09;;;6.34;47.12
78117;BME280;67887;59.082;37.928;2023-04-01T00:40:37;98713.03;;;6.33;47.56
78117;BME280;67887;59.082;37.928;2023-04-01T00:43:11;98701.38;;;6.22;47.42
78117;BME280;67887;59.082;37.928;2023-04-01T00:45:43;98708.19;;;6.25;47.49
78117;BME280;67887;59.082;37.928;2023-04-01T00:48:14;98711.59;;;6.25;47.75
78117;BME280;67887;59.082;37.928;2023-04-01T00:50:44;98704.75;;;6.24;47.67
78117;BME280;67887;59.082;37.928;2023-04-01T00:53:12;98704.03;;;6.21;47.12
78117;BME280;67887;59.082;37.928;2023-04-01T00:55:45;98705.88;;;6.19;47.79
78117;BME280;67887;59.082;37.928;2023-04-01T00:58:18;98694.66;;;6.18;47.71
78117;BME280;67887;59.082;37.928;2023-04-01T01:00:48;98702.50;;;6.17;47.96
78117;BME280;67887;59.082;37.928;2023-04-01T01:03:16;98701.81;;;6.13;47.28
78117;BME280;67887;59.082;37.928;2023-04-01T01:06:19;98712.88;;;6.17;47.82
78117;BME280;67887;59.082;37.928;2023-04-01T01:08:39;98707.63;;;6.18;47.56
78117;BME280;67887;59.082;37.928;2023-04-01T01:11:12;98705.31;;;6.12;47.32
78117;BME280;67887;59.082;37.928;2023-04-01T01:14:07;98711.47;;;6.10;48.04
78117;BME280;67887;59.082;37.928;2023-04-01T01:16:39;98720.88;;;6.12;47.67
78117;BME280;67887;59.082;37.928;2023-04-01T01:25:20;98714.91;;;6.10;48.21
78117;BME280;67887;59.082;37.928;2023-04-01T01:28:02;98725.72;;;6.20;47.51
78117;BME280;67887;59.082;37.928;2023-04-01T01:30:52;98716.66;;;6.10;47.82
78117;BME280;67887;59.082;37.928;2023-04-01T01:33:42;98723.00;;;6.04;47.52
78117;BME280;67887;59.082;37.928;2023-04-01T01:36:13;98715.44;;;5.99;47.64
78117;BME280;67887;59.082;37.928;2023-04-01T01:38:41;98716.47;;;5.95;47.46
78117;BME280;67887;59.082;37.928;2023-04-01T01:41:09;98716.59;;;5.92;47.82
78117;BME280;67887;59.082;37.928;2023-04-01T01:43:40;98712.50;;;5.87;48.13
78117;BME280;67887;59.082;37.928;2023-04-01T01:46:11;98714.78;;;5.94;48.08
78117;BME280;67887;59.082;37.928;2023-04-01T01:48:41;98712.47;;;5.88;47.72
78117;BME280;67887;59.082;37.928;2023-04-01T01:51:08;98710.75;;;5.87;47.92
78117;BME280;67887;59.082;37.928;2023-04-01T01:53:36;98713.13;;;5.92;47.87
78117;BME280;67887;59.082;37.928;2023-04-01T01:56:03;98711.53;;;5.89;47.91
78117;BME280;67887;59.082;37.928;2023-04-01T01:58:36;98711.47;;;5.91;47.88
78117;BME280;67887;59.082;37.928;2023-04-01T02:01:12;98705.50;;;5.89;47.65
78117;BME280;67887;59.082;37.928;2023-04-01T02:03:41;98706.34;;;5.89;48.04
78117;BME280;67887;59.082;37.928;2023-04-01T02:06:10;98716.59;;;5.92;47.77
78117;BME280;67887;59.082;37.928;2023-04-01T02:08:42;98705.50;;;5.89;48.12
78117;BME280;67887;59.082;37.928;2023-04-01T02:11:17;98704.53;;;5.91;48.05
78117;BME280;67887;59.082;37.928;2023-04-01T02:13:53;98707.28;;;5.88;47.57
78117;BME280;67887;59.082;37.928;2023-04-01T02:16:28;98702.91;;;5.89;47.47
78117;BME280;67887;59.082;37.928;2023-04-01T02:18:57;98703.75;;;5.89;47.77
78117;BME280;67887;59.082;37.928;2023-04-01T02:21:28;98699.69;;;5.83;47.31
78117;BME280;67887;59.082;37.928;2023-04-01T02:23:59;98707.59;;;5.80;47.53
78117;BME280;67887;59.082;37.928;2023-04-01T02:26:27;98702.63;;;5.76;47.67
78117;BME280;67887;59.082;37.928;2023-04-01T02:28:54;98701.78;;;5.75;47.38
78117;BME280;67887;59.082;37.928;2023-04-01T02:31:21;98701.06;;;5.72;47.52
78117;BME280;67887;59.082;37.928;2023-04-01T02:33:50;98708.94;;;5.70;47.21
78117;BME280;67887;59.082;37.928;2023-04-01T02:36:17;98705.56;;;5.68;47.81
78117;BME280;67887;59.082;37.928;2023-04-01T02:38:45;98700.50;;;5.65;47.60
78117;BME280;67887;59.082;37.928;2023-04-01T02:41:12;98701.28;;;5.67;47.42
78117;BME280;67887;59.082;37.928;2023-04-01T02:43:39;98702.25;;;5.64;47.67
78117;BME280;67887;59.082;37.928;2023-04-01T02:46:05;98704.09;;;5.62;47.22
78117;BME280;67887;59.082;37.928;2023-04-01T02:48:32;98707.53;;;5.63;47.45
78117;BME280;67887;59.082;37.928;2023-04-01T02:50:58;98705.91;;;5.60;47.27
78117;BME280;67887;59.082;37.928;2023-04-01T02:53:24;98699.25;;;5.55;47.19
78117;BME280;67887;59.082;37.928;2023-04-01T02:55:51;98711.44;;;5.53;47.50
78117;BME280;67887;59.082;37.928;2023-04-01T02:58:18;98711.94;;;5.61;47.22
78117;BME280;67887;59.082;37.928;2023-04-01T03:00:45;98712.78;;;5.61;47.22
78117;BME280;67887;59.082;37.928;2023-04-01T03:03:11;98714.44;;;5.62;47.35
78117;BME280;67887;59.082;37.928;2023-04-01T03:05:40;98714.44;;;5.62;47.54
78117;BME280;67887;59.082;37.928;2023-04-01T03:08:06;98717.03;;;5.62;47.61
78117;BME280;67887;59.082;37.928;2023-04-01T03:10:33;98710.19;;;5.61;47.81
78117;BME280;67887;59.082;37.928;2023-04-01T03:13:00;98712.72;;;5.63;47.61
78117;BME280;67887;59.082;37.928;2023-04-01T03:15:26;98707.66;;;5.60;47.39
78117;BME280;67887;59.082;37.928;2023-04-01T03:17:52;98706.97;;;5.56;48.05
78117;BME280;67887;59.082;37.928;2023-04-01T03:20:18;98705.28;;;5.55;47.63
78117;BME280;67887;59.082;37.928;2023-04-01T03:22:46;98708.13;;;5.49;48.06
78117;BME280;67887;59.082;37.928;2023-04-01T03:25:13;98713.25;;;5.51;47.90
78117;BME280;67887;59.082;37.928;2023-04-01T03:27:39;98708.06;;;5.51;47.84
78117;BME280;67887;59.082;37.928;2023-04-01T03:30:07;98710.66;;;5.51;48.12
78117;BME280;67887;59.082;37.928;2023-04-01T03:32:40;98708.13;;;5.49;47.66
78117;BME280;67887;59.082;37.928;2023-04-01T03:35:07;98713.31;;;5.49;47.88
78117;BME280;67887;59.082;37.928;2023-04-01T03:37:33;98705.72;;;5.45;48.42
78117;BME280;67887;59.082;37.928;2023-04-01T03:39:59;98709.03;;;5.48;48.05
78117;BME280;67887;59.082;37.928;2023-04-01T03:42:25;98717.66;;;5.49;48.31
78117;BME280;67887;59.082;37.928;2023-04-01T03:44:51;98712.41;;;5.50;48.49
78117;BME280;67887;59.082;37.928;2023-04-01T03:47:18;98712.25;;;5.53;48.31
78117;BME280;67887;59.082;37.928;2023-04-01T03:49:44;98708.63;;;5.57;48.40
78117;BME280;67887;59.082;37.928;2023-04-01T03:52:11;98709.34;;;5.61;48.04
78117;BME280;67887;59.082;37.928;2023-04-01T03:54:38;98710.88;;;5.65;48.41
78117;BME280;67887;59.082;37.928;2023-04-01T03:57:05;98710.59;;;5.71;48.27
78117;BME280;67887;59.082;37.928;2023-04-01T03:59:32;98696.47;;;5.78;48.12
78117;BME280;67887;59.082;37.928;2023-04-01T04:01:59;98718.31;;;5.92;48.35
78117;BME280;67887;59.082;37.928;2023-04-01T04:04:26;98712.13;;;5.96;48.43
78117;BME280;67887;59.082;37.928;2023-04-01T04:06:54;98719.84;;;5.97;48.26
78117;BME280;67887;59.082;37.928;2023-04-01T04:09:22;98724.09;;;5.98;48.62
78117;BME280;67887;59.082;37.928;2023-04-01T04:11:49;98711.28;;;5.95;48.33
78117;BME280;67887;59.082;37.928;2023-04-01T04:14:16;98715.44;;;5.99;48.59
78117;BME280;67887;59.082;37.928;2023-04-01T04:16:43;98717.25;;;5.97;48.50
78117;BME280;67887;59.082;37.928;2023-04-01T04:19:10;98721.59;;;5.97;48.56
78117;BME280;67887;59.082;37.928;2023-04-01T04:21:36;98726.78;;;5.97;48.48
78117;BME280;67887;59.082;37.928;2023-04-01T04:24:03;98731.81;;;6.00;48.51
78117;BME280;67887;59.082;37.928;2023-04-01T04:26:49;98716.31;;;5.98;48.38
78117;BME280;67887;59.082;37.928;2023-04-01T04:29:16;98712.91;;;5.98;48.57
78117;BME280;67887;59.082;37.928;2023-04-01T04:31:42;98723.28;;;5.98;48.66
78117;BME280;67887;59.082;37.928;2023-04-01T04:34:09;98730.97;;;5.99;48.88
78117;BME280;67887;59.082;37.928;2023-04-01T04:36:36;98728.31;;;6.01;48.71
78117;BME280;67887;59.082;37.928;2023-04-01T04:39:02;98726.69;;;5.98;48.62
78117;BME280;67887;59.082;37.928;2023-04-01T04:41:31;98739.44;;;6.03;48.79
78117;BME280;67887;59.082;37.928;2023-04-01T04:43:58;98734.19;;;6.04;49.03
78117;BME280;67887;59.082;37.928;2023-04-01T04:46:25;98742.59;;;6.10;48.60
78117;BME280;67887;59.082;37.928;2023-04-01T04:48:58;98736.59;;;6.09;48.71
78117;BME280;67887;59.082;37.928;2023-04-01T04:51:24;98738.13;;;6.13;48.62
78117;BME280;67887;59.082;37.928;2023-04-01T04:53:51;98737.75;;;6.21;49.09
78117;BME280;67887;59.082;37.928;2023-04-01T04:56:22;98738.31;;;6.28;48.40
78117;BME280;67887;59.082;37.928;2023-04-01T04:58:57;98735.16;;;6.40;49.00
78117;BME280;67887;59.082;37.928;2023-04-01T05:01:28;98735.63;;;6.48;48.59
78117;BME280;67887;59.082;37.928;2023-04-01T05:03:54;98733.13;;;6.46;48.48
78117;BME280;67887;59.082;37.928;2023-04-01T05:06:20;98732.41;;;6.43;48.65
78117;BME280;67887;59.082;37.928;2023-04-01T05:08:47;98740.13;;;6.44;48.64
78117;BME280;67887;59.082;37.928;2023-04-01T05:11:16;98730.66;;;6.43;48.80
78117;BME280;67887;59.082;37.928;2023-04-01T05:13:43;98752.72;;;6.52;48.62
78117;BME280;67887;59.082;37.928;2023-04-01T05:16:13;98736.56;;;6.47;48.42
78117;BME280;67887;59.082;37.928;2023-04-01T05:18:40;98745.16;;;6.47;48.30
78117;BME280;67887;59.082;37.928;2023-04-01T05:21:07;98749.31;;;6.52;48.65
78117;BME280;67887;59.082;37.928;2023-04-01T05:23:34;98749.09;;;6.56;48.28
78117;BME280;67887;59.082;37.928;2023-04-01T05:26:05;98751.69;;;6.56;48.58
78117;BME280;67887;59.082;37.928;2023-04-01T05:28:33;98747.19;;;6.60;48.36
78117;BME280;67887;59.082;37.928;2023-04-01T05:31:01;98742.00;;;6.60;48.32
78117;BME280;67887;59.082;37.928;2023-04-01T05:33:34;98745.34;;;6.62;48.19
78117;BME280;67887;59.082;37.928;2023-04-01T05:36:13;98755.44;;;6.68;48.47
78117;BME280;67887;59.082;37.928;2023-04-01T05:38:40;98740.84;;;6.65;48.11
78117;BME280;67887;59.082;37.928;2023-04-01T05:41:10;98747.38;;;6.74;48.11
78117;BME280;67887;59.082;37.928;2023-04-01T05:43:42;98745.59;;;6.75;47.68
78117;BME280;67887;59.082;37.928;2023-04-01T05:46:29;98737.53;;;6.81;48.16
78117;BME280;67887;59.082;37.928;2023-04-01T05:49:06;98743.25;;;6.87;48.07
78117;BME280;67887;59.082;37.928;2023-04-01T05:51:33;98743.03;;;6.92;47.81
78117;BME280;67887;59.082;37.928;2023-04-01T05:53:59;98745.41;;;6.97;47.90
78117;BME280;67887;59.082;37.928;2023-04-01T05:56:26;98742.56;;;7.01;47.73
78117;BME280;67887;59.082;37.928;2023-04-01T05:58:54;98738.97;;;7.04;47.85
78117;BME280;67887;59.082;37.928;2023-04-01T06:01:22;98742.06;;;7.12;47.70
78117;BME280;67887;59.082;37.928;2023-04-01T06:03:49;98740.13;;;7.16;47.61
78117;BME280;67887;59.082;37.928;2023-04-01T06:06:26;98753.66;;;7.22;47.37
78117;BME280;67887;59.082;37.928;2023-04-01T06:09:24;98736.56;;;7.18;47.36
78117;BME280;67887;59.082;37.928;2023-04-01T06:14:50;98752.28;;;7.33;47.27
78117;BME280;67887;59.082;37.928;2023-04-01T06:17:30;98748.38;;;7.41;46.97
78117;BME280;67887;59.082;37.928;2023-04-01T06:28:39;98741.50;;;7.74;46.58
78117;BME280;67887;59.082;37.928;2023-04-01T06:39:07;98749.41;;;7.88;45.94
78117;BME280;67887;59.082;37.928;2023-04-01T06:48:00;98745.16;;;8.03;46.06
78117;BME280;67887;59.082;37.928;2023-04-01T06:54:11;98733.94;;;8.18;45.56
78117;BME280;67887;59.082;37.928;2023-04-01T06:59:54;98744.41;;;8.32;45.39
78117;BME280;67887;59.082;37.928;2023-04-01T07:02:28;98727.78;;;8.35;45.29
78117;BME280;67887;59.082;37.928;2023-04-01T07:04:59;98736.06;;;8.43;45.61
78117;BME280;67887;59.082;37.928;2023-04-01T07:10:43;98735.03;;;8.62;45.19
78117;BME280;67887;59.082;37.928;2023-04-01T07:13:52;98740.13;;;8.79;45.07
78117;BME280;67887;59.082;37.928;2023-04-01T07:16:39;98744.88;;;8.87;44.78
78117;BME280;67887;59.082;37.928;2023-04-01T07:25:34;98736.13;;;9.04;44.23
78117;BME280;67887;59.082;37.928;2023-04-01T07:28:39;98735.56;;;9.13;44.21
78117;BME280;67887;59.082;37.928;2023-04-01T07:36:43;98749.31;;;9.45;44.00
78117;BME280;67887;59.082;37.928;2023-04-01T07:42:41;98751.91;;;9.45;44.08
78117;BME280;67887;59.082;37.928;2023-04-01T07:48:42;98748.88;;;9.53;43.36
78117;BME280;67887;59.082;37.928;2023-04-01T07:51:45;98753.16;;;9.54;43.24
78117;BME280;67887;59.082;37.928;2023-04-01T07:54:26;98746.53;;;9.48;43.40
78117;BME280;67887;59.082;37.928;2023-04-01T07:57:08;98755.59;;;9.57;43.39
78117;BME280;67887;59.082;37.928;2023-04-01T08:00:24;98765.00;;;9.74;42.97
78117;BME280;67887;59.082;37.928;2023-04-01T08:03:10;98767.31;;;9.78;42.91
78117;BME280;67887;59.082;37.928;2023-04-01T08:05:41;98765.38;;;9.82;43.04
78117;BME280;67887;59.082;37.928;2023-04-01T08:11:12;98764.72;;;9.93;42.72
78117;BME280;67887;59.082;37.928;2023-04-01T08:17:19;98767.50;;;10.18;42.38
78117;BME280;67887;59.082;37.928;2023-04-01T08:19:56;98766.19;;;10.26;42.29
78117;BME280;67887;59.082;37.928;2023-04-01T08:22:33;98760.97;;;10.26;41.92
78117;BME280;67887;59.082;37.928;2023-04-01T08:25:23;98757.41;;;10.27;41.62
78117;BME280;67887;59.082;37.928;2023-04-01T08:27:59;98765.00;;;10.31;41.36
78117;BME280;67887;59.082;37.928;2023-04-01T08:30:50;98768.25;;;10.35;41.51
78117;BME280;67887;59.082;37.928;2023-04-01T08:33:32;98759.22;;;10.40;41.18
78117;BME280;67887;59.082;37.928;2023-04-01T08:36:20;98760.66;;;10.45;41.22
78117;BME280;67887;59.082;37.928;2023-04-01T08:39:04;98762.91;;;10.51;40.97
78117;BME280;67887;59.082;37.928;2023-04-01T08:41:48;98766.91;;;10.56;40.33
78117;BME280;67887;59.082;37.928;2023-04-01T08:45:20;98770.41;;;10.70;40.09
78117;BME280;67887;59.082;37.928;2023-04-01T08:56:49;98779.34;;;11.20;40.21
78117;BME280;67887;59.082;37.928;2023-04-01T09:07:50;98765.59;;;12.44;38.21
78117;BME280;67887;59.082;37.928;2023-04-01T09:22:06;98768.34;;;15.07;35.73
78117;BME280;67887;59.082;37.928;2023-04-01T09:25:01;98765.78;;;15.58;34.73
78117;BME280;67887;59.082;37.928;2023-04-01T09:27:34;98759.16;;;16.16;34.17
78117;BME280;67887;59.082;37.928;2023-04-01T09:30:31;98760.88;;;16.87;33.11
78117;BME280;67887;59.082;37.928;2023-04-01T09:36:10;98761.13;;;17.99;31.96
78117;BME280;67887;59.082;37.928;2023-04-01T09:41:28;98757.03;;;18.14;32.08
78117;BME280;67887;59.082;37.928;2023-04-01T09:44:21;98763.50;;;18.02;31.32
78117;BME280;67887;59.082;37.928;2023-04-01T09:52:31;98772.91;;;18.69;31.82
78117;BME280;67887;59.082;37.928;2023-04-01T10:07:32;98758.78;;;22.26;28.29
78117;BME280;67887;59.082;37.928;2023-04-01T10:21:51;98761.44;;;22.88;26.18
78117;BME280;67887;59.082;37.928;2023-04-01T10:27:46;98773.19;;;23.25;26.24
78117;BME280;67887;59.082;37.928;2023-04-01T10:36:46;98765.19;;;23.25;25.93
78117;BME280;67887;59.082;37.928;2023-04-01T10:39:33;98773.19;;;23.25;26.03
78117;BME280;67887;59.082;37.928;2023-04-01T10:48:49;98779.03;;;22.97;24.81
78117;BME280;67887;59.082;37.928;2023-04-01T10:57:22;98767.06;;;22.31;25.12
78117;BME280;67887;59.082;37.928;2023-04-01T11:09:43;98775.03;;;21.50;25.92
78117;BME280;67887;59.082;37.928;2023-04-01T11:23:05;98793.13;;;21.22;25.38
78117;BME280;67887;59.082;37.928;2023-04-01T11:33:54;98805.00;;;20.77;25.85
78117;BME280;67887;59.082;37.928;2023-04-01T11:36:33;98809.03;;;20.55;25.66
78117;BME280;67887;59.082;37.928;2023-04-01T11:39:19;98804.63;;;20.29;25.91
78117;BME280;67887;59.082;37.928;2023-04-01T11:42:20;98809.94;;;19.95;25.95
78117;BME280;67887;59.082;37.928;2023-04-01T11:48:11;98805.41;;;19.25;26.45
78117;BME280;67887;59.082;37.928;2023-04-01T11:53:33;98821.94;;;18.64;26.85
78117;BME280;67887;59.082;37.928;2023-04-01T12:16:26;98849.66;;;17.56;27.39
78117;BME280;67887;59.082;37.928;2023-04-01T12:19:15;98853.53;;;17.52;27.18
78117;BME280;67887;59.082;37.928;2023-04-01T12:35:15;98855.06;;;17.64;27.54
78117;BME280;67887;59.082;37.928;2023-04-01T12:45:38;98858.56;;;17.55;28.36
78117;BME280;67887;59.082;37.928;2023-04-01T12:51:29;98869.22;;;17.63;27.75
78117;BME280;67887;59.082;37.928;2023-04-01T13:22:24;98892.91;;;16.85;28.03
78117;BME280;67887;59.082;37.928;2023-04-01T13:27:46;98899.63;;;16.68;28.13
78117;BME280;67887;59.082;37.928;2023-04-01T13:30:27;98895.31;;;16.57;28.22
78117;BME280;67887;59.082;37.928;2023-04-01T13:35:51;98897.75;;;16.49;28.16
78117;BME280;67887;59.082;37.928;2023-04-01T13:44:12;98898.59;;;16.50;28.41
78117;BME280;67887;59.082;37.928;2023-04-01T13:49:53;98896.16;;;16.37;28.22
78117;BME280;67887;59.082;37.928;2023-04-01T14:00:54;98920.22;;;16.22;28.41
78117;BME280;67887;59.082;37.928;2023-04-01T14:11:35;98928.78;;;15.94;28.68
78117;BME280;67887;59.082;37.928;2023-04-01T14:14:21;98936.88;;;15.81;28.67
78117;BME280;67887;59.082;37.928;2023-04-01T14:42:23;98963.34;;;14.46;29.75
78117;BME280;67887;59.082;37.928;2023-04-01T14:48:30;98971.91;;;14.25;30.25
78117;BME280;67887;59.082;37.928;2023-04-01T14:51:49;98970.91;;;14.15;30.14
78117;BME280;67887;59.082;37.928;2023-04-01T14:54:04;98973.75;;;14.01;30.27
78117;BME280;67887;59.082;37.928;2023-04-01T14:56:38;98978.31;;;14.10;30.13
78117;BME280;67887;59.082;37.928;2023-04-01T15:04:46;98980.13;;;13.61;30.56
78117;BME280;67887;59.082;37.928;2023-04-01T15:13:15;99001.09;;;13.37;30.77
78117;BME280;67887;59.082;37.928;2023-04-01T15:27:27;99017.09;;;12.83;32.04
78117;BME280;67887;59.082;37.928;2023-04-01T15:30:38;99023.72;;;12.76;32.39
78117;BME280;67887;59.082;37.928;2023-04-01T15:35:53;99045.94;;;12.57;33.32
78117;BME280;67887;59.082;37.928;2023-04-01T15:41:07;99061.13;;;12.52;33.36
78117;BME280;67887;59.082;37.928;2023-04-01T15:43:49;99071.38;;;12.29;34.22
78117;BME280;67887;59.082;37.928;2023-04-01T15:54:49;99086.28;;;11.87;36.71
78117;BME280;67887;59.082;37.928;2023-04-01T16:00:30;99093.03;;;11.63;37.54
78117;BME280;67887;59.082;37.928;2023-04-01T16:03:13;99099.16;;;11.49;38.02
78117;BME280;67887;59.082;37.928;2023-04-01T16:13:32;99105.50;;;11.16;39.16
78117;BME280;67887;59.082;37.928;2023-04-01T16:23:57;99126.22;;;10.91;39.71
78117;BME280;67887;59.082;37.928;2023-04-01T16:26:39;99134.31;;;10.86;39.62
78117;BME280;67887;59.082;37.928;2023-04-01T16:34:45;99129.91;;;10.72;40.56
78117;BME280;67887;59.082;37.928;2023-04-01T16:39:47;99144.00;;;10.70;40.27
78117;BME280;67887;59.082;37.928;2023-04-01T16:47:50;99149.88;;;10.43;42.11
78117;BME280;67887;59.082;37.928;2023-04-01T16:50:23;99152.91;;;10.35;41.82
78117;BME280;67887;59.082;37.928;2023-04-01T16:53:09;99162.34;;;10.38;42.36
78117;BME280;67887;59.082;37.928;2023-04-01T16:55:50;99160.16;;;10.30;42.36
78117;BME280;67887;59.082;37.928;2023-04-01T16:58:23;99160.31;;;10.27;42.11
78117;BME280;67887;59.082;37.928;2023-04-01T17:00:58;99164.94;;;10.22;42.41
78117;BME280;67887;59.082;37.928;2023-04-01T17:04:04;99159.91;;;10.19;42.87
78117;BME280;67887;59.082;37.928;2023-04-01T17:06:38;99178.84;;;10.23;42.75
78117;BME280;67887;59.082;37.928;2023-04-01T17:12:32;99179.94;;;10.18;43.07
78117;BME280;67887;59.082;37.928;2023-04-01T17:26:24;99195.84;;;9.98;44.03
78117;BME280;67887;59.082;37.928;2023-04-01T20:46:37;99302.66;;;8.81;50.50
78117;BME280;67887;59.082;37.928;2023-04-01T20:49:28;99307.16;;;8.77;50.83
78117;BME280;67887;59.082;37.928;2023-04-01T21:08:10;99326.88;;;8.64;50.87
78117;BME280;67887;59.082;37.928;2023-04-01T21:19:25;99314.91;;;8.60;51.79
78117;BME280;67887;59.082;37.928;2023-04-01T22:03:27;99316.88;;;8.54;52.29
78117;BME280;67887;59.082;37.928;2023-04-01T22:08:50;99321.94;;;8.58;51.83
78117;BME280;67887;59.082;37.928;2023-04-01T22:14:30;99329.69;;;8.59;52.05
78117;BME280;67887;59.082;37.928;2023-04-01T22:17:02;99334.06;;;8.59;51.91
78117;BME280;67887;59.082;37.928;2023-04-01T22:22:28;99338.22;;;8.63;52.06
78117;BME280;67887;59.082;37.928;2023-04-01T22:25:17;99333.22;;;8.58;52.42
78117;BME280;67887;59.082;37.928;2023-04-01T22:27:55;99324.53;;;8.58;52.34
78117;BME280;67887;59.082;37.928;2023-04-01T22:30:28;99334.00;;;8.60;51.73
78117;BME280;67887;59.082;37.928;2023-04-01T22:33:41;99343.34;;;8.64;52.49
78117;BME280;67887;59.082;37.928;2023-04-01T22:39:15;99342.91;;;8.73;51.86
78117;BME280;67887;59.082;37.928;2023-04-01T22:42:01;99338.00;;;8.67;51.93
78117;BME280;67887;59.082;37.928;2023-04-01T22:56:08;99345.81;;;8.67;51.49
78117;BME280;67887;59.082;37.928;2023-04-01T22:58:42;99356.50;;;8.61;51.81
78117;BME280;67887;59.082;37.928;2023-04-01T23:01:15;99355.78;;;8.58;51.81
78117;BME280;67887;59.082;37.928;2023-04-01T23:03:46;99357.50;;;8.59;51.63
78117;BME280;67887;59.082;37.928;2023-04-01T23:06:26;99343.06;;;8.51;51.86
78117;BME280;67887;59.082;37.928;2023-04-01T23:11:28;99349.75;;;8.57;52.17
78117;BME280;67887;59.082;37.928;2023-04-01T23:14:09;99359.63;;;8.69;52.19
78117;BME280;67887;59.082;37.928;2023-04-01T23:16:45;99357.19;;;8.84;51.61
78117;BME280;67887;59.082;37.928;2023-04-01T23:22:34;99369.94;;;8.71;51.88
78117;BME280;67887;59.082;37.928;2023-04-01T23:27:37;99371.97;;;8.64;51.88
78117;BME280;67887;59.082;37.928;2023-04-01T23:33:27;99360.22;;;8.74;51.86
78117;BME280;67887;59.082;37.928;2023-04-01T23:36:00;99352.56;;;8.71;52.07
78117;BME280;67887;59.082;37.928;2023-04-01T23:38:36;99350.88;;;8.70;51.89
78117;BME280;67887;59.082;37.928;2023-04-01T23:41:03;99345.72;;;8.69;51.92
78117;BME280;67887;59.082;37.928;2023-04-01T23:43:34;99338.91;;;8.66;51.97
78117;BME280;67887;59.082;37.928;2023-04-01T23:46:03;99344.88;;;8.68;51.93
78117;BME280;67887;59.082;37.928;2023-04-01T23:48:37;99339.75;;;8.67;52.03
78117;BME280;67887;59.082;37.928;2023-04-01T23:51:12;99355.53;;;8.64;52.25
78117;BME280;67887;59.082;37.928;2023-04-01T23:53:44;99348.53;;;8.64;52.16
78117;BME280;67887;59.082;37.928;2023-04-01T23:56:11;99357.22;;;8.65;51.99
